createdAt,value
2023-03-31T00:00:48.612Z,2.30
2023-03-31T00:03:28.407Z,2.30
2023-03-31T00:05:59.646Z,3.03
2023-03-31T00:08:36.638Z,2.53
2023-03-31T00:11:13.605Z,2.50
2023-03-31T00:13:42.198Z,2.30
2023-03-31T00:16:18.346Z,2.97
2023-03-31T00:18:55.210Z,2.63
2023-03-31T00:21:29.860Z,2.60
2023-03-31T00:24:07.568Z,3.27
2023-03-31T00:26:37.335Z,2.63
2023-03-31T00:29:07.600Z,2.97
2023-03-31T00:31:43.626Z,2.93
2023-03-31T00:34:19.070Z,2.90
2023-03-31T00:36:55.385Z,3.13
2023-03-31T00:39:24.907Z,3.00
2023-03-31T00:42:00.637Z,2.97
2023-03-31T00:44:40.349Z,2.47
2023-03-31T00:47:14.854Z,3.60
2023-03-31T00:49:53.604Z,3.30
2023-03-31T00:52:33.617Z,3.40
2023-03-31T00:55:06.719Z,3.53
2023-03-31T00:57:46.387Z,3.77
2023-03-31T01:00:25.414Z,2.87
2023-03-31T01:02:56.687Z,3.67
2023-03-31T01:05:34.725Z,4.13
2023-03-31T01:08:07.608Z,4.10
2023-03-31T01:10:48.473Z,3.70
2023-03-31T01:13:25.416Z,3.17
2023-03-31T01:15:54.475Z,3.13
2023-03-31T01:18:30.724Z,3.90
2023-03-31T01:21:38.674Z,3.93
2023-03-31T01:24:54.703Z,3.70
2023-03-31T01:27:44.802Z,4.50
2023-03-31T01:30:55.696Z,4.43
2023-03-31T01:33:57.116Z,3.43
2023-03-31T01:37:05.730Z,2.77
2023-03-31T01:40:20.492Z,2.63
2023-03-31T01:43:01.387Z,2.83
2023-03-31T01:45:39.476Z,3.00
2023-03-31T01:48:21.679Z,2.70
2023-03-31T01:50:57.369Z,2.50
2023-03-31T01:53:39.647Z,2.50
2023-03-31T01:56:16.041Z,2.67
2023-03-31T01:58:56.751Z,2.37
2023-03-31T02:01:31.574Z,2.60
2023-03-31T02:04:11.472Z,2.60
2023-03-31T02:06:47.862Z,2.80
2023-03-31T02:09:27.464Z,2.37
2023-03-31T02:11:59.680Z,2.40
2023-03-31T02:14:39.465Z,2.40
2023-03-31T02:17:09.580Z,1.97
2023-03-31T02:19:48.766Z,2.13
2023-03-31T02:22:20.353Z,2.23
2023-03-31T02:24:57.758Z,2.37
2023-03-31T02:27:32.561Z,2.03
2023-03-31T02:30:07.575Z,1.97
2023-03-31T02:33:04.557Z,2.33
2023-03-31T02:35:37.187Z,2.20
2023-03-31T02:38:13.746Z,2.27
2023-03-31T02:40:49.537Z,2.13
2023-03-31T02:43:19.844Z,2.00
2023-03-31T02:45:55.809Z,2.30
2023-03-31T02:48:29.544Z,1.67
2023-03-31T02:51:33.520Z,1.97
2023-03-31T02:54:21.817Z,1.70
2023-03-31T02:57:18.803Z,1.80
2023-03-31T02:59:59.340Z,1.63
2023-03-31T03:02:48.618Z,1.70
2023-03-31T03:05:29.913Z,1.57
2023-03-31T03:08:13.475Z,1.70
2023-03-31T03:10:51.245Z,1.70
2023-03-31T03:13:31.758Z,2.00
2023-03-31T03:16:07.781Z,1.70
2023-03-31T03:18:43.472Z,1.90
2023-03-31T03:21:11.937Z,1.73
2023-03-31T03:23:46.523Z,1.87
2023-03-31T03:26:15.053Z,1.50
2023-03-31T03:28:50.826Z,1.40
2023-03-31T03:31:30.809Z,1.63
2023-03-31T03:34:07.186Z,1.77
2023-03-31T03:36:42.839Z,1.80
2023-03-31T03:39:11.440Z,1.83
2023-03-31T03:41:46.845Z,1.60
2023-03-31T03:44:21.570Z,1.50
2023-03-31T03:46:51.939Z,2.00
2023-03-31T03:49:27.882Z,1.83
2023-03-31T03:51:56.465Z,1.90
2023-03-31T03:54:25.363Z,1.70
2023-03-31T03:57:00.858Z,1.80
2023-03-31T03:59:29.546Z,1.40
2023-03-31T04:01:59.756Z,1.50
2023-03-31T04:04:34.623Z,1.50
2023-03-31T04:07:03.106Z,1.83
2023-03-31T04:09:38.528Z,1.47
2023-03-31T04:12:13.554Z,2.10
2023-03-31T04:14:42.385Z,1.80
2023-03-31T04:17:22.986Z,1.90
2023-03-31T04:19:59.822Z,1.83
2023-03-31T04:22:29.128Z,2.00
2023-03-31T04:25:05.555Z,2.00
2023-03-31T04:27:41.852Z,1.90
2023-03-31T04:30:12.099Z,2.00
2023-03-31T04:32:57.916Z,1.80
2023-03-31T04:35:54.649Z,2.10
2023-03-31T04:38:27.385Z,2.40
2023-03-31T04:41:02.848Z,2.23
2023-03-31T04:43:37.576Z,2.47
2023-03-31T04:46:06.521Z,1.73
2023-03-31T04:48:43.786Z,2.10
2023-03-31T04:51:15.659Z,1.90
2023-03-31T04:53:50.621Z,2.10
2023-03-31T04:56:25.866Z,2.60
2023-03-31T04:58:54.604Z,2.37
2023-03-31T05:01:23.214Z,2.10
2023-03-31T05:03:59.610Z,2.10
2023-03-31T05:06:28.333Z,2.17
2023-03-31T05:09:03.868Z,2.07
2023-03-31T05:11:39.023Z,2.47
2023-03-31T05:14:08.021Z,2.23
2023-03-31T05:16:43.984Z,2.60
2023-03-31T05:19:20.793Z,2.27
2023-03-31T05:21:49.396Z,2.00
2023-03-31T05:24:24.752Z,1.97
2023-03-31T05:27:03.618Z,2.43
2023-03-31T05:29:32.461Z,2.10
2023-03-31T05:32:08.814Z,2.63
2023-03-31T05:34:52.263Z,2.50
2023-03-31T05:37:21.567Z,2.33
2023-03-31T05:39:56.653Z,2.20
2023-03-31T05:42:31.905Z,2.83
2023-03-31T05:45:00.608Z,2.60
2023-03-31T05:47:35.742Z,2.23
2023-03-31T05:50:09.583Z,2.53
2023-03-31T05:52:44.677Z,2.57
2023-03-31T05:55:19.736Z,2.80
2023-03-31T05:57:48.472Z,2.73
2023-03-31T06:00:17.954Z,2.47
2023-03-31T06:02:53.832Z,2.93
2023-03-31T06:05:26.946Z,3.00
2023-03-31T06:08:01.970Z,2.80
2023-03-31T06:10:36.937Z,2.80
2023-03-31T06:13:05.625Z,3.00
2023-03-31T06:15:40.737Z,2.90
2023-03-31T06:18:17.993Z,2.93
2023-03-31T06:20:48.287Z,2.87
2023-03-31T06:23:24.010Z,3.00
2023-03-31T06:25:58.940Z,3.73
2023-03-31T06:28:28.036Z,3.37
2023-03-31T06:31:09.220Z,2.77
2023-03-31T06:33:44.725Z,3.00
2023-03-31T06:36:24.687Z,2.90
2023-03-31T06:39:00.152Z,2.83
2023-03-31T06:41:28.866Z,2.87
2023-03-31T06:43:57.624Z,2.37
2023-03-31T06:46:33.117Z,2.30
2023-03-31T06:49:03.147Z,2.60
2023-03-31T06:51:39.773Z,2.53
2023-03-31T06:54:14.701Z,3.20
2023-03-31T06:56:43.181Z,2.90
2023-03-31T06:59:18.751Z,2.63
2023-03-31T07:01:49.071Z,2.60
2023-03-31T07:04:24.037Z,2.90
2023-03-31T07:06:54.168Z,2.70
2023-03-31T07:09:29.913Z,3.70
2023-03-31T07:12:04.791Z,2.83
2023-03-31T07:14:33.691Z,2.93
2023-03-31T07:17:08.751Z,3.40
2023-03-31T07:19:44.756Z,3.27
2023-03-31T07:22:15.054Z,3.17
2023-03-31T07:24:50.697Z,3.73
2023-03-31T07:27:26.458Z,2.97
2023-03-31T07:29:55.543Z,2.73
2023-03-31T07:32:30.809Z,3.20
2023-03-31T07:35:13.034Z,3.37
2023-03-31T07:37:44.900Z,3.43
2023-03-31T07:40:23.761Z,3.23
2023-03-31T07:42:58.821Z,3.47
2023-03-31T07:45:28.133Z,3.17
2023-03-31T07:48:03.870Z,4.33
2023-03-31T07:50:32.361Z,3.30
2023-03-31T07:53:02.920Z,3.73
2023-03-31T07:55:37.781Z,2.93
2023-03-31T07:58:06.627Z,4.00
2023-03-31T08:00:35.466Z,3.40
2023-03-31T08:03:10.845Z,3.13
2023-03-31T08:05:39.309Z,3.03
2023-03-31T08:08:16.222Z,3.13
2023-03-31T08:10:52.019Z,3.57
2023-03-31T08:13:21.123Z,3.57
2023-03-31T08:15:55.831Z,3.27
2023-03-31T08:18:24.376Z,3.57
2023-03-31T08:21:00.100Z,3.47
2023-03-31T08:23:39.779Z,3.30
2023-03-31T08:26:17.210Z,3.63
2023-03-31T08:28:54.827Z,3.80
2023-03-31T08:31:26.703Z,3.70
2023-03-31T08:34:10.082Z,2.93
2023-03-31T08:36:45.035Z,3.53
2023-03-31T08:39:15.871Z,3.63
2023-03-31T08:41:59.839Z,3.53
2023-03-31T08:44:40.812Z,4.00
2023-03-31T08:47:15.016Z,3.40
2023-03-31T08:49:53.841Z,3.40
2023-03-31T08:52:28.860Z,3.40
2023-03-31T08:55:10.065Z,3.33
2023-03-31T08:57:53.850Z,3.20
2023-03-31T09:00:22.973Z,3.50
2023-03-31T09:03:07.425Z,3.20
2023-03-31T09:05:59.488Z,3.37
2023-03-31T09:08:46.114Z,2.93
2023-03-31T09:11:29.651Z,3.53
2023-03-31T09:14:30.908Z,2.90
2023-03-31T09:17:14.448Z,2.70
2023-03-31T09:19:56.903Z,2.70
2023-03-31T09:22:29.271Z,2.17
2023-03-31T09:25:10.129Z,2.50
2023-03-31T09:27:43.818Z,2.30
2023-03-31T09:30:24.873Z,2.70
2023-03-31T09:33:11.368Z,2.20
2023-03-31T09:35:48.323Z,2.60
2023-03-31T09:38:18.525Z,2.83
2023-03-31T09:40:53.853Z,3.03
2023-03-31T09:43:34.153Z,2.70
2023-03-31T09:46:15.304Z,2.87
2023-03-31T09:49:04.152Z,2.63
2023-03-31T09:51:37.823Z,2.90
2023-03-31T09:54:22.171Z,2.53
2023-03-31T09:56:54.030Z,3.10
2023-03-31T09:59:37.914Z,2.93
2023-03-31T10:02:26.000Z,3.07
2023-03-31T10:05:00.914Z,3.10
2023-03-31T10:07:29.837Z,3.63
2023-03-31T10:10:04.909Z,3.30
2023-03-31T10:12:33.679Z,3.27
2023-03-31T10:15:27.959Z,3.50
2023-03-31T10:18:06.915Z,3.30
2023-03-31T10:20:39.557Z,3.73
2023-03-31T10:23:24.912Z,3.43
2023-03-31T10:26:01.173Z,3.30
2023-03-31T10:28:33.762Z,3.47
2023-03-31T10:31:11.101Z,3.40
2023-03-31T10:33:51.780Z,4.27
2023-03-31T10:36:35.883Z,3.67
2023-03-31T10:39:07.786Z,3.30
2023-03-31T10:41:44.169Z,3.40
2023-03-31T10:44:44.202Z,2.80
2023-03-31T10:47:22.409Z,3.30
2023-03-31T10:49:59.965Z,3.27
2023-03-31T10:52:29.038Z,2.93
2023-03-31T10:55:07.349Z,3.27
2023-03-31T10:57:44.601Z,4.17
2023-03-31T11:00:34.993Z,3.17
2023-03-31T11:03:42.774Z,3.10
2023-03-31T11:06:24.985Z,3.60
2023-03-31T11:09:01.536Z,3.80
2023-03-31T11:11:56.975Z,3.63
2023-03-31T11:14:34.315Z,2.93
2023-03-31T11:17:18.268Z,3.20
2023-03-31T11:19:58.250Z,4.00
2023-03-31T11:22:42.968Z,3.57
2023-03-31T11:25:22.397Z,3.07
2023-03-31T11:28:42.257Z,3.53
2023-03-31T11:31:33.499Z,3.87
2023-03-31T11:34:18.950Z,3.40
2023-03-31T11:37:11.113Z,2.97
2023-03-31T11:39:48.945Z,3.17
2023-03-31T11:42:27.993Z,2.87
2023-03-31T11:45:08.032Z,2.80
2023-03-31T11:47:38.723Z,2.30
2023-03-31T11:50:20.081Z,2.27
2023-03-31T11:52:59.128Z,3.13
2023-03-31T11:55:36.007Z,3.40
2023-03-31T11:58:09.032Z,3.10
2023-03-31T12:00:47.233Z,2.63
2023-03-31T12:03:28.066Z,2.30
2023-03-31T12:06:06.477Z,2.93
2023-03-31T12:08:47.061Z,2.73
2023-03-31T12:11:24.218Z,2.70
2023-03-31T12:14:03.308Z,2.63
2023-03-31T12:16:40.292Z,2.33
2023-03-31T12:19:21.392Z,2.50
2023-03-31T12:21:53.278Z,2.43
2023-03-31T12:24:30.253Z,2.27
2023-03-31T12:27:07.551Z,2.77
2023-03-31T12:29:46.038Z,2.37
2023-03-31T12:32:26.005Z,2.70
2023-03-31T12:35:07.595Z,2.60
2023-03-31T12:38:22.986Z,2.47
2023-03-31T12:41:03.186Z,2.53
2023-03-31T12:44:04.070Z,2.80
2023-03-31T12:46:51.489Z,2.63
2023-03-31T12:49:48.023Z,2.60
2023-03-31T12:52:23.317Z,2.70
2023-03-31T12:55:29.087Z,2.90
2023-03-31T12:58:49.067Z,2.60
2023-03-31T13:01:22.364Z,2.27
2023-03-31T13:04:00.378Z,2.73
2023-03-31T13:06:59.937Z,2.73
2023-03-31T13:09:53.309Z,2.50
2023-03-31T13:12:25.635Z,2.37
2023-03-31T13:15:07.445Z,2.10
2023-03-31T13:17:39.982Z,2.37
2023-03-31T13:20:44.403Z,2.53
2023-03-31T13:23:21.169Z,2.43
2023-03-31T13:25:59.375Z,2.17
2023-03-31T13:28:52.104Z,2.10
2023-03-31T13:31:23.027Z,2.10
2023-03-31T13:34:04.344Z,1.83
2023-03-31T13:36:59.791Z,2.10
2023-03-31T13:40:12.337Z,1.70
2023-03-31T13:43:14.139Z,1.50
2023-03-31T13:45:56.281Z,1.60
2023-03-31T13:48:52.044Z,1.77
2023-03-31T13:51:28.149Z,1.50
2023-03-31T13:54:28.140Z,1.47
2023-03-31T13:57:24.940Z,1.50
2023-03-31T14:00:38.170Z,2.10
2023-03-31T14:03:36.887Z,1.80
2023-03-31T14:06:18.401Z,2.17
2023-03-31T14:08:52.066Z,2.17
2023-03-31T14:11:32.742Z,2.60
2023-03-31T14:14:03.574Z,2.40
2023-03-31T14:16:44.390Z,2.40
2023-03-31T14:19:31.405Z,1.70
2023-03-31T14:22:16.160Z,1.93
2023-03-31T14:24:59.495Z,2.80
2023-03-31T14:27:45.311Z,3.10
2023-03-31T14:30:29.151Z,1.93
2023-03-31T14:33:28.068Z,1.60
2023-03-31T14:36:08.219Z,4.77
2023-03-31T14:38:38.828Z,2.20
2023-03-31T14:41:14.090Z,1.23
2023-03-31T14:43:50.127Z,1.50
2023-03-31T14:46:29.462Z,1.90
2023-03-31T14:49:04.401Z,1.30
2023-03-31T14:51:33.307Z,1.40
2023-03-31T14:54:10.528Z,1.10
2023-03-31T14:56:42.233Z,1.10
2023-03-31T14:59:18.492Z,1.10
2023-03-31T15:02:00.206Z,0.90
2023-03-31T15:04:42.053Z,0.90
2023-03-31T15:07:18.243Z,1.00
2023-03-31T15:09:58.399Z,1.30
2023-03-31T15:12:27.525Z,1.40
2023-03-31T15:15:05.196Z,1.20
2023-03-31T15:17:39.650Z,1.67
2023-03-31T15:20:35.162Z,1.00
2023-03-31T15:23:08.193Z,0.80
2023-03-31T15:25:52.850Z,0.80
2023-03-31T15:28:22.481Z,1.00
2023-03-31T15:31:09.723Z,2.40
2023-03-31T15:33:48.551Z,1.37
2023-03-31T15:36:24.288Z,1.40
2023-03-31T15:39:04.146Z,1.40
2023-03-31T15:41:34.334Z,0.90
2023-03-31T15:44:14.227Z,0.77
2023-03-31T15:47:00.188Z,1.20
2023-03-31T15:49:36.467Z,2.20
2023-03-31T15:52:05.453Z,1.60
2023-03-31T15:54:45.408Z,0.90
2023-03-31T15:57:22.556Z,0.90
2023-03-31T16:00:02.660Z,0.80
2023-03-31T16:02:44.278Z,1.00
2023-03-31T16:05:43.730Z,1.00
2023-03-31T16:08:22.862Z,1.70
2023-03-31T16:11:05.528Z,2.77
2023-03-31T16:16:17.479Z,2.90
2023-03-31T16:18:49.210Z,3.90
2023-03-31T16:21:30.176Z,2.10
2023-03-31T16:24:08.463Z,1.53
2023-03-31T16:26:39.269Z,1.37
2023-03-31T16:29:16.562Z,1.40
2023-03-31T16:31:45.179Z,1.50
2023-03-31T16:34:29.369Z,1.67
2023-03-31T16:37:11.115Z,2.00
2023-03-31T16:39:46.263Z,2.00
2023-03-31T16:42:14.803Z,2.93
2023-03-31T16:45:09.394Z,2.53
2023-03-31T16:47:43.552Z,3.10
2023-03-31T16:50:21.502Z,2.07
2023-03-31T16:52:56.653Z,1.87
2023-03-31T16:55:26.075Z,2.37
2023-03-31T16:58:01.582Z,1.90
2023-03-31T17:00:38.263Z,1.33
2023-03-31T17:03:07.437Z,1.50
2023-03-31T17:05:48.516Z,2.00
2023-03-31T17:08:24.349Z,1.50
2023-03-31T17:10:54.750Z,1.77
2023-03-31T17:13:30.281Z,1.67
2023-03-31T17:16:16.399Z,1.70
2023-03-31T17:18:54.584Z,1.60
2023-03-31T17:21:23.836Z,1.37
2023-03-31T17:24:01.544Z,2.10
2023-03-31T17:26:31.147Z,1.50
2023-03-31T17:29:07.586Z,1.80
2023-03-31T17:31:44.565Z,1.90
2023-03-31T17:34:21.777Z,1.80
2023-03-31T17:37:03.705Z,1.53
2023-03-31T17:39:32.764Z,1.43
2023-03-31T17:42:07.707Z,2.07
2023-03-31T17:44:43.336Z,1.80
2023-03-31T17:47:13.427Z,2.00
2023-03-31T17:49:48.382Z,1.40
2023-03-31T17:52:17.246Z,1.70
2023-03-31T17:54:52.602Z,1.40
2023-03-31T17:57:21.210Z,1.33
2023-03-31T17:59:56.326Z,1.30
2023-03-31T18:02:27.527Z,3.47
2023-03-31T18:05:02.457Z,8.40
2023-03-31T18:07:37.574Z,5.30
2023-03-31T18:10:07.778Z,4.97
2023-03-31T18:12:43.597Z,3.43
2023-03-31T18:15:19.420Z,2.27
2023-03-31T18:17:49.711Z,2.20
2023-03-31T18:20:25.330Z,2.03
2023-03-31T18:23:00.356Z,2.57
2023-03-31T18:25:29.056Z,3.13
2023-03-31T18:28:04.331Z,3.63
2023-03-31T18:30:33.070Z,2.70
2023-03-31T18:33:03.440Z,3.57
2023-03-31T18:35:38.565Z,4.30
2023-03-31T18:38:07.636Z,5.30
2023-03-31T18:40:36.501Z,4.17
2023-03-31T18:43:12.644Z,5.67
2023-03-31T18:45:41.461Z,4.07
2023-03-31T18:48:18.360Z,5.00
2023-03-31T18:50:53.377Z,3.40
2023-03-31T18:53:22.681Z,4.53
2023-03-31T18:55:58.512Z,3.07
2023-03-31T18:58:37.465Z,3.37
2023-03-31T19:01:07.831Z,2.87
2023-03-31T19:03:44.377Z,4.17
2023-03-31T19:06:19.362Z,3.43
2023-03-31T19:08:47.929Z,3.20
2023-03-31T19:11:24.630Z,2.47
2023-03-31T19:14:02.404Z,2.77
2023-03-31T19:16:31.415Z,3.50
2023-03-31T19:19:08.744Z,3.80
2023-03-31T19:21:44.368Z,4.27
2023-03-31T19:24:13.411Z,3.80
2023-03-31T19:26:48.651Z,4.40
2023-03-31T19:29:24.671Z,3.60
2023-03-31T19:31:53.433Z,5.17
2023-03-31T19:34:30.669Z,13.30
2023-03-31T19:37:06.064Z,5.67
2023-03-31T19:39:41.676Z,4.37
2023-03-31T19:42:16.412Z,3.93
2023-03-31T19:44:45.767Z,3.47
2023-03-31T19:47:21.743Z,3.10
2023-03-31T19:49:58.648Z,2.87
2023-03-31T19:52:28.568Z,3.43
2023-03-31T19:55:03.672Z,2.83
2023-03-31T19:57:39.799Z,3.03
2023-03-31T20:00:10.169Z,2.83
2023-03-31T20:02:45.873Z,2.60
2023-03-31T20:05:23.711Z,2.70
2023-03-31T20:07:52.183Z,3.63
2023-03-31T20:10:27.738Z,2.80
2023-03-31T20:13:03.722Z,3.87
2023-03-31T20:15:33.323Z,3.50
2023-03-31T20:18:08.746Z,3.20
2023-03-31T20:20:47.728Z,2.97
2023-03-31T20:23:16.645Z,3.10
2023-03-31T20:25:51.453Z,6.00
2023-03-31T20:28:20.197Z,12.93
2023-03-31T20:30:56.085Z,4.10
2023-03-31T20:33:44.813Z,3.27
2023-03-31T20:36:23.601Z,2.60
2023-03-31T20:38:55.986Z,2.83
2023-03-31T20:41:34.512Z,2.80
2023-03-31T20:44:03.777Z,3.00
2023-03-31T20:46:38.487Z,2.50
2023-03-31T20:49:13.584Z,2.20
2023-03-31T20:51:43.813Z,2.30
2023-03-31T20:54:18.691Z,2.90
2023-03-31T20:56:47.544Z,2.17
2023-03-31T20:59:23.835Z,2.30
2023-03-31T21:01:58.486Z,2.20
2023-03-31T21:04:27.749Z,2.57
2023-03-31T21:07:04.813Z,2.33
2023-03-31T21:09:39.834Z,1.90
2023-03-31T21:12:08.680Z,1.87
2023-03-31T21:14:44.734Z,1.57
2023-03-31T21:17:13.650Z,1.93
2023-03-31T21:19:48.807Z,1.70
2023-03-31T21:22:19.635Z,1.43
2023-03-31T21:24:54.733Z,1.57
2023-03-31T21:27:23.138Z,1.77
2023-03-31T21:29:58.776Z,1.60
2023-03-31T21:32:36.548Z,2.00
2023-03-31T21:35:12.114Z,1.80
2023-03-31T21:37:48.818Z,1.63
2023-03-31T21:40:17.719Z,2.37
2023-03-31T21:42:52.513Z,1.90
2023-03-31T21:45:21.908Z,2.40
2023-03-31T21:47:50.582Z,2.13
2023-03-31T21:50:25.792Z,1.90
2023-03-31T21:52:56.157Z,1.90
2023-03-31T21:55:24.810Z,2.20
2023-03-31T21:57:59.575Z,2.00
2023-03-31T22:00:34.598Z,1.80
2023-03-31T22:03:22.405Z,2.17
2023-03-31T22:05:58.727Z,1.93
2023-03-31T22:08:29.137Z,1.87
2023-03-31T22:11:06.556Z,2.10
2023-03-31T22:13:35.363Z,2.00
2023-03-31T22:16:14.872Z,1.80
2023-03-31T22:18:49.622Z,2.10
2023-03-31T22:21:20.783Z,1.80
2023-03-31T22:23:59.861Z,1.77
2023-03-31T22:26:36.634Z,1.70
2023-03-31T22:29:05.431Z,1.83
2023-03-31T22:31:40.889Z,2.13
2023-03-31T22:34:15.612Z,1.83
2023-03-31T22:36:51.537Z,2.07
2023-03-31T22:39:28.523Z,2.47
2023-03-31T22:41:57.085Z,2.23
2023-03-31T22:44:32.498Z,1.80
2023-03-31T22:47:07.604Z,1.83
2023-03-31T22:49:36.294Z,2.37
2023-03-31T22:52:11.579Z,2.20
2023-03-31T22:54:48.502Z,2.20
2023-03-31T22:57:18.535Z,2.07
2023-03-31T22:59:53.632Z,1.87
2023-03-31T23:02:29.984Z,1.80
2023-03-31T23:04:58.591Z,1.70
2023-03-31T23:07:34.886Z,2.03
2023-03-31T23:10:11.839Z,2.00
2023-03-31T23:12:40.590Z,2.10
2023-03-31T23:15:16.580Z,1.90
2023-03-31T23:17:51.981Z,1.90
2023-03-31T23:20:21.686Z,1.57
2023-03-31T23:22:59.874Z,1.70
2023-03-31T23:25:29.927Z,1.83
2023-03-31T23:28:05.587Z,1.70
2023-03-31T23:30:34.128Z,1.77
2023-03-31T23:33:08.890Z,1.70
2023-03-31T23:35:44.432Z,1.40
2023-03-31T23:38:19.653Z,1.50
2023-03-31T23:40:49.647Z,1.80
2023-03-31T23:43:24.977Z,1.67
2023-03-31T23:45:53.860Z,2.00
2023-03-31T23:48:29.950Z,1.63
2023-03-31T23:50:58.439Z,1.50
2023-03-31T23:53:33.988Z,1.73
2023-03-31T23:56:12.858Z,1.87
2023-03-31T23:58:43.342Z,1.43
